createdAt,value
2019-02-02T00:00:21.367Z,4.82
2019-02-02T00:03:09.146Z,4.84
2019-02-02T00:05:56.774Z,4.84
2019-02-02T00:08:44.198Z,4.86
2019-02-02T00:11:31.930Z,4.91
2019-02-02T00:14:19.662Z,4.90
2019-02-02T00:17:06.982Z,4.96
2019-02-02T00:19:55.865Z,5.08
2019-02-02T00:22:43.277Z,5.05
2019-02-02T00:25:30.905Z,4.89
2019-02-02T00:28:18.530Z,5.02
2019-02-02T00:31:06.258Z,5.06
2019-02-02T00:33:53.999Z,4.61
2019-02-02T00:36:41.308Z,4.30
2019-02-02T00:39:29.153Z,4.02
2019-02-02T00:42:16.670Z,4.40
2019-02-02T00:45:07.696Z,4.62
2019-02-02T00:47:55.121Z,4.47
2019-02-02T00:50:43.191Z,4.77
2019-02-02T00:53:31.078Z,4.87
2019-02-02T00:56:18.813Z,4.95
2019-02-02T00:59:06.547Z,5.05
2019-02-02T01:01:54.076Z,5.15
2019-02-02T01:04:41.590Z,5.24
2019-02-02T01:07:28.603Z,5.18
2019-02-02T01:10:19.373Z,5.09
2019-02-02T01:13:06.829Z,5.13
2019-02-02T01:15:54.050Z,5.19
2019-02-02T01:18:41.473Z,5.09
2019-02-02T01:21:29.304Z,5.17
2019-02-02T01:24:16.504Z,5.17
2019-02-02T01:27:04.156Z,5.10
2019-02-02T01:29:52.091Z,4.72
2019-02-02T01:32:39.516Z,4.25
2019-02-02T01:35:27.354Z,4.11
2019-02-02T01:38:14.872Z,4.17
2019-02-02T01:41:02.367Z,4.19
2019-02-02T01:43:49.928Z,4.54
2019-02-02T01:46:37.248Z,4.77
2019-02-02T01:49:25.800Z,4.93
2019-02-02T01:52:13.323Z,4.91
2019-02-02T01:55:01.167Z,5.02
2019-02-02T01:57:48.278Z,5.04
2019-02-02T02:00:36.123Z,5.05
2019-02-02T02:03:23.762Z,5.08
2019-02-02T02:06:11.577Z,5.25
2019-02-02T02:08:58.897Z,5.13
2019-02-02T02:11:46.215Z,5.06
2019-02-02T02:14:33.842Z,4.56
2019-02-02T02:17:21.476Z,3.90
2019-02-02T02:20:11.651Z,4.05
2019-02-02T02:22:58.781Z,3.40
2019-02-02T02:25:46.511Z,2.87
2019-02-02T02:28:33.638Z,2.45
2019-02-02T02:31:20.948Z,2.43
2019-02-02T02:34:08.575Z,2.70
2019-02-02T02:36:55.811Z,3.25
2019-02-02T02:39:43.542Z,3.64
2019-02-02T02:42:31.362Z,4.07
2019-02-02T02:45:19.397Z,4.48
2019-02-02T02:48:07.230Z,4.70
2019-02-02T02:50:54.757Z,4.57
2019-02-02T02:53:41.975Z,4.45
2019-02-02T02:56:29.300Z,4.48
2019-02-02T02:59:17.030Z,4.26
2019-02-02T03:02:04.759Z,4.11
2019-02-02T03:04:52.188Z,4.08
2019-02-02T03:07:40.125Z,4.31
2019-02-02T03:10:27.545Z,4.45
2019-02-02T03:13:15.073Z,4.44
2019-02-02T03:16:02.699Z,4.60
2019-02-02T03:18:50.524Z,4.59
2019-02-02T03:21:37.958Z,4.43
2019-02-02T03:24:25.385Z,4.07
2019-02-02T03:27:12.958Z,3.30
2019-02-02T03:30:00.747Z,2.92
2019-02-02T03:32:48.283Z,3.08
2019-02-02T03:35:36.206Z,3.46
2019-02-02T03:38:23.838Z,3.75
2019-02-02T03:41:11.822Z,4.13
2019-02-02T03:43:59.200Z,3.92
2019-02-02T03:46:46.718Z,3.95
2019-02-02T03:49:35.169Z,4.18
2019-02-02T03:52:22.498Z,4.44
2019-02-02T03:55:12.782Z,4.51
2019-02-02T03:58:00.204Z,4.56
2019-02-02T04:00:47.833Z,4.65
2019-02-02T04:03:35.368Z,4.78
2019-02-02T04:06:22.578Z,4.84
2019-02-02T04:09:10.007Z,4.79
2019-02-02T04:11:57.124Z,4.70
2019-02-02T04:14:44.549Z,4.63
2019-02-02T04:17:31.970Z,4.37
2019-02-02T04:20:22.192Z,4.41
2019-02-02T04:23:09.705Z,4.39
2019-02-02T04:25:58.849Z,4.49
2019-02-02T04:28:46.065Z,4.24
2019-02-02T04:31:33.899Z,3.30
2019-02-02T04:34:21.325Z,3.23
2019-02-02T04:37:08.748Z,3.39
2019-02-02T04:39:55.763Z,3.71
2019-02-02T04:42:43.448Z,4.25
2019-02-02T04:45:31.019Z,4.50
2019-02-02T04:48:18.545Z,4.74
2019-02-02T04:51:06.189Z,4.89
2019-02-02T04:53:53.599Z,4.98
2019-02-02T04:56:41.330Z,5.00
2019-02-02T04:59:29.590Z,5.00
2019-02-02T05:02:18.438Z,5.04
2019-02-02T05:05:09.227Z,5.10
2019-02-02T05:07:56.658Z,5.13
2019-02-02T05:10:44.289Z,5.15
2019-02-02T05:13:31.816Z,5.19
2019-02-02T05:16:19.552Z,5.21
2019-02-02T05:19:07.380Z,5.22
2019-02-02T05:21:54.823Z,4.72
2019-02-02T05:24:42.533Z,3.84
2019-02-02T05:27:30.365Z,3.48
2019-02-02T05:30:20.959Z,3.37
2019-02-02T05:33:08.495Z,3.27
2019-02-02T05:35:55.915Z,3.52
2019-02-02T05:38:43.263Z,3.76
2019-02-02T05:41:30.765Z,3.72
2019-02-02T05:44:18.497Z,3.53
2019-02-02T05:47:05.944Z,3.12
2019-02-02T05:49:53.548Z,3.00
2019-02-02T05:52:41.076Z,2.99
2019-02-02T05:55:28.292Z,2.77
2019-02-02T05:58:15.921Z,2.85
2019-02-02T06:01:03.044Z,3.48
2019-02-02T06:03:50.567Z,4.06
2019-02-02T06:06:37.992Z,4.43
2019-02-02T06:09:25.417Z,4.65
2019-02-02T06:12:13.042Z,4.76
2019-02-02T06:15:00.672Z,4.85
2019-02-02T06:17:48.198Z,4.92
2019-02-02T06:20:35.625Z,4.75
2019-02-02T06:23:22.839Z,4.34
2019-02-02T06:26:10.265Z,4.45
2019-02-02T06:28:57.798Z,4.69
2019-02-02T06:31:45.418Z,4.88
2019-02-02T06:34:32.844Z,4.99
2019-02-02T06:37:20.165Z,4.98
2019-02-02T06:40:10.357Z,5.04
2019-02-02T06:42:57.675Z,5.06
2019-02-02T06:45:45.098Z,5.13
2019-02-02T06:48:32.741Z,5.11
2019-02-02T06:51:20.460Z,5.10
2019-02-02T06:54:08.294Z,5.15
2019-02-02T06:56:55.308Z,5.14
2019-02-02T06:59:42.833Z,5.14
2019-02-02T07:02:30.154Z,5.11
2019-02-02T07:05:17.890Z,5.15
2019-02-02T07:08:05.416Z,5.17
2019-02-02T07:10:52.752Z,5.16
2019-02-02T07:13:40.375Z,5.23
2019-02-02T07:16:30.757Z,5.20
2019-02-02T07:19:18.294Z,5.05
2019-02-02T07:22:05.919Z,4.94
2019-02-02T07:24:53.161Z,4.63
2019-02-02T07:27:40.861Z,4.61
2019-02-02T07:30:29.453Z,4.64
2019-02-02T07:33:17.348Z,4.77
2019-02-02T07:36:04.876Z,4.68
2019-02-02T07:38:53.126Z,4.45
2019-02-02T07:41:41.211Z,4.38
2019-02-02T07:44:29.208Z,4.54
2019-02-02T07:47:16.780Z,4.36
2019-02-02T07:50:06.196Z,4.13
2019-02-02T07:52:53.931Z,4.09
2019-02-02T07:55:41.041Z,4.17
2019-02-02T07:58:28.671Z,4.45
2019-02-02T08:01:18.169Z,4.59
2019-02-02T08:04:05.973Z,4.83
2019-02-02T08:06:53.296Z,4.84
2019-02-02T08:09:40.721Z,4.89
2019-02-02T08:12:28.248Z,5.02
2019-02-02T08:15:18.333Z,5.01
2019-02-02T08:18:06.492Z,5.04
2019-02-02T08:20:53.798Z,5.03
2019-02-02T08:23:41.630Z,5.07
2019-02-02T08:26:31.925Z,4.85
2019-02-02T08:29:19.556Z,4.90
2019-02-02T08:32:07.723Z,4.96
2019-02-02T08:34:55.331Z,4.67
2019-02-02T08:37:42.646Z,4.98
2019-02-02T08:40:30.269Z,5.05
2019-02-02T08:43:17.897Z,5.03
2019-02-02T08:46:05.449Z,4.85
2019-02-02T08:48:52.747Z,4.93
2019-02-02T08:51:40.275Z,5.03
2019-02-02T08:54:27.905Z,5.10
2019-02-02T08:57:15.343Z,4.79
2019-02-02T09:00:02.957Z,4.77
2019-02-02T09:02:50.696Z,4.64
2019-02-02T09:05:38.425Z,4.74
2019-02-02T09:08:26.050Z,4.69
2019-02-02T09:11:13.366Z,4.79
2019-02-02T09:14:00.688Z,4.21
2019-02-02T09:16:48.419Z,3.85
2019-02-02T09:19:35.847Z,3.73
2019-02-02T09:22:23.370Z,3.44
2019-02-02T09:25:13.001Z,3.79
2019-02-02T09:28:00.702Z,3.88
2019-02-02T09:30:48.012Z,3.72
2019-02-02T09:33:35.234Z,3.71
2019-02-02T09:36:22.954Z,3.72
2019-02-02T09:39:10.594Z,3.49
2019-02-02T09:41:59.434Z,3.42
2019-02-02T09:44:46.962Z,3.44
2019-02-02T09:47:34.486Z,3.41
2019-02-02T09:50:23.677Z,3.98
2019-02-02T09:53:11.177Z,4.27
2019-02-02T09:55:59.118Z,4.66
2019-02-02T09:58:46.892Z,4.83
2019-02-02T10:01:34.269Z,4.82
2019-02-02T10:04:21.795Z,4.96
2019-02-02T10:07:09.219Z,5.09
2019-02-02T10:09:56.849Z,4.94
2019-02-02T10:12:44.272Z,4.99
2019-02-02T10:15:31.592Z,5.14
2019-02-02T10:18:19.122Z,5.37
2019-02-02T10:21:06.648Z,5.51
2019-02-02T10:23:54.379Z,5.60
2019-02-02T10:26:42.006Z,5.67
2019-02-02T10:29:29.845Z,5.68
2019-02-02T10:32:17.267Z,5.70
2019-02-02T10:35:05.699Z,5.73
2019-02-02T10:37:53.342Z,5.75
2019-02-02T10:40:40.765Z,5.78
2019-02-02T10:43:28.000Z,5.81
2019-02-02T10:46:15.307Z,5.88
2019-02-02T10:49:02.628Z,5.81
2019-02-02T10:51:50.363Z,5.62
2019-02-02T10:54:37.883Z,5.75
2019-02-02T10:57:25.321Z,5.67
2019-02-02T11:00:19.293Z,5.59
2019-02-02T11:03:06.918Z,5.67
2019-02-02T11:05:54.334Z,5.65
2019-02-02T11:08:41.762Z,5.34
2019-02-02T11:11:29.290Z,5.35
2019-02-02T11:14:16.980Z,5.60
2019-02-02T11:17:04.759Z,5.66
2019-02-02T11:19:52.327Z,5.76
2019-02-02T11:22:40.186Z,5.87
2019-02-02T11:25:28.401Z,5.94
2019-02-02T11:28:15.906Z,5.98
2019-02-02T11:31:03.307Z,6.06
2019-02-02T11:33:50.835Z,6.16
2019-02-02T11:36:38.667Z,6.20
2019-02-02T11:39:25.988Z,6.26
2019-02-02T11:42:13.512Z,5.32
2019-02-02T11:45:01.043Z,6.29
2019-02-02T11:47:48.768Z,6.31
2019-02-02T11:50:36.193Z,6.34
2019-02-02T11:53:23.722Z,6.44
2019-02-02T11:56:11.144Z,6.41
2019-02-02T11:58:58.569Z,6.36
2019-02-02T12:01:45.898Z,6.40
2019-02-02T12:04:33.418Z,6.44
2019-02-02T12:07:21.871Z,6.49
2019-02-02T12:10:12.566Z,6.49
2019-02-02T12:13:00.301Z,6.50
2019-02-02T12:15:47.926Z,6.47
2019-02-02T12:18:35.761Z,6.51
2019-02-02T12:21:23.491Z,6.54
2019-02-02T12:24:15.907Z,6.32
2019-02-02T12:26:59.569Z,6.19
2019-02-02T12:29:47.196Z,5.62
2019-02-02T12:32:36.651Z,5.55
2019-02-02T12:35:25.890Z,5.70
2019-02-02T12:38:13.565Z,5.52
2019-02-02T12:41:01.475Z,5.83
2019-02-02T12:43:49.025Z,5.99
2019-02-02T12:46:36.860Z,6.06
2019-02-02T12:49:23.975Z,6.10
2019-02-02T12:52:11.812Z,6.06
2019-02-02T12:54:59.336Z,6.09
2019-02-02T12:57:47.070Z,6.25
2019-02-02T13:00:34.399Z,6.30
2019-02-02T13:03:22.121Z,6.39
2019-02-02T13:06:09.549Z,6.46
2019-02-02T13:08:56.976Z,6.56
2019-02-02T13:11:44.806Z,6.60
2019-02-02T13:14:32.122Z,6.67
2019-02-02T13:17:19.548Z,6.72
2019-02-02T13:20:12.386Z,6.70
2019-02-02T13:23:00.027Z,6.75
2019-02-02T13:25:47.822Z,6.62
2019-02-02T13:28:35.390Z,6.62
2019-02-02T13:31:22.640Z,6.50
2019-02-02T13:34:10.338Z,6.53
2019-02-02T13:36:57.661Z,6.55
2019-02-02T13:39:44.980Z,6.62
2019-02-02T13:42:32.405Z,6.69
2019-02-02T13:45:21.395Z,6.70
2019-02-02T13:48:09.198Z,6.72
2019-02-02T13:50:56.518Z,6.30
2019-02-02T13:53:43.637Z,6.20
2019-02-02T13:56:31.369Z,6.40
2019-02-02T13:59:18.896Z,6.48
2019-02-02T14:02:06.421Z,6.56
2019-02-02T14:04:53.538Z,6.63
2019-02-02T14:07:41.577Z,6.68
2019-02-02T14:10:31.061Z,6.73
2019-02-02T14:13:18.677Z,6.76
2019-02-02T14:16:05.900Z,6.79
2019-02-02T14:18:53.116Z,6.78
2019-02-02T14:21:40.546Z,6.80
2019-02-02T14:24:27.861Z,6.82
2019-02-02T14:27:15.081Z,6.87
2019-02-02T14:30:02.301Z,6.89
2019-02-02T14:32:49.927Z,6.85
2019-02-02T14:35:37.353Z,6.81
2019-02-02T14:38:25.292Z,6.85
2019-02-02T14:41:13.122Z,6.86
2019-02-02T14:44:00.766Z,6.86
2019-02-02T14:46:48.176Z,6.87
2019-02-02T14:49:35.599Z,6.88
2019-02-02T14:52:22.921Z,6.90
2019-02-02T14:55:16.285Z,6.87
2019-02-02T14:58:05.042Z,6.84
2019-02-02T15:00:54.001Z,6.86
2019-02-02T15:03:41.466Z,6.76
2019-02-02T15:06:28.743Z,6.74
2019-02-02T15:09:15.762Z,6.68
2019-02-02T15:12:02.843Z,6.68
2019-02-02T15:14:50.196Z,6.69
2019-02-02T15:17:37.316Z,6.71
2019-02-02T15:20:30.527Z,6.70
2019-02-02T15:23:17.936Z,6.73
2019-02-02T15:26:05.834Z,6.72
2019-02-02T15:28:52.846Z,6.43
2019-02-02T15:31:40.276Z,6.47
2019-02-02T15:34:27.797Z,6.44
2019-02-02T15:37:15.530Z,6.44
2019-02-02T15:40:03.053Z,6.46
2019-02-02T15:42:50.687Z,6.48
2019-02-02T15:45:38.109Z,6.54
2019-02-02T15:48:25.739Z,6.55
2019-02-02T15:51:13.177Z,6.55
2019-02-02T15:54:00.483Z,6.37
2019-02-02T15:56:48.132Z,6.41
2019-02-02T15:59:38.904Z,6.43
2019-02-02T16:02:26.607Z,6.42
2019-02-02T16:05:16.732Z,6.45
2019-02-02T16:08:10.468Z,6.48
2019-02-02T16:10:57.624Z,6.53
2019-02-02T16:13:45.253Z,6.57
2019-02-02T16:16:32.984Z,6.57
2019-02-02T16:19:20.418Z,6.56
2019-02-02T16:22:08.344Z,6.59
2019-02-02T16:24:56.281Z,6.59
2019-02-02T16:27:44.011Z,6.61
2019-02-02T16:30:31.535Z,6.60
2019-02-02T16:33:18.857Z,6.64
2019-02-02T16:36:06.898Z,6.62
2019-02-02T16:38:54.320Z,6.62
2019-02-02T16:41:41.551Z,6.60
2019-02-02T16:44:29.376Z,6.60
2019-02-02T16:47:17.102Z,6.56
2019-02-02T16:50:06.189Z,6.54
2019-02-02T16:52:53.898Z,6.55
2019-02-02T16:55:41.536Z,6.57
2019-02-02T16:58:29.156Z,6.59
2019-02-02T17:01:16.805Z,6.54
2019-02-02T17:04:15.077Z,6.47
2019-02-02T17:06:53.679Z,6.28
2019-02-02T17:09:41.572Z,6.28
2019-02-02T17:12:29.143Z,6.31
2019-02-02T17:15:16.612Z,6.36
2019-02-02T17:18:04.499Z,6.38
2019-02-02T17:20:51.616Z,6.42
2019-02-02T17:23:39.455Z,6.45
2019-02-02T17:26:26.775Z,6.45
2019-02-02T17:29:14.503Z,6.43
2019-02-02T17:32:02.133Z,6.43
2019-02-02T17:34:49.465Z,6.44
2019-02-02T17:37:36.879Z,6.44
2019-02-02T17:40:26.666Z,6.41
2019-02-02T17:43:13.922Z,6.41
2019-02-02T17:46:03.057Z,6.39
2019-02-02T17:48:50.260Z,6.39
2019-02-02T17:51:37.693Z,6.39
2019-02-02T17:54:25.011Z,6.38
2019-02-02T17:57:12.434Z,6.40
2019-02-02T18:00:00.615Z,6.40
2019-02-02T18:02:48.513Z,6.43
2019-02-02T18:05:35.729Z,6.42
2019-02-02T18:08:23.502Z,6.45
2019-02-02T18:11:11.233Z,6.45
2019-02-02T18:13:59.640Z,6.27
2019-02-02T18:16:46.752Z,6.32
2019-02-02T18:19:34.383Z,6.34
2019-02-02T18:22:21.808Z,6.31
2019-02-02T18:25:11.690Z,6.24
2019-02-02T18:27:58.882Z,6.25
2019-02-02T18:30:51.045Z,6.31
2019-02-02T18:33:38.877Z,6.22
2019-02-02T18:36:29.589Z,6.23
2019-02-02T18:39:17.604Z,6.27
2019-02-02T18:42:05.244Z,6.25
2019-02-02T18:44:52.698Z,6.31
2019-02-02T18:47:40.399Z,6.31
2019-02-02T18:50:28.614Z,6.29
2019-02-02T18:53:16.272Z,6.21
2019-02-02T18:56:04.239Z,6.23
2019-02-02T18:58:51.833Z,6.28
2019-02-02T19:01:38.850Z,6.34
2019-02-02T19:04:26.275Z,6.33
2019-02-02T19:07:13.697Z,6.24
2019-02-02T19:10:01.018Z,5.96
2019-02-02T19:12:48.447Z,5.77
2019-02-02T19:15:35.972Z,5.94
2019-02-02T19:18:23.504Z,6.01
2019-02-02T19:21:11.330Z,6.08
2019-02-02T19:23:59.062Z,6.11
2019-02-02T19:26:46.084Z,6.09
2019-02-02T19:29:33.811Z,6.07
2019-02-02T19:32:20.927Z,6.01
2019-02-02T19:35:16.310Z,5.99
2019-02-02T19:37:59.688Z,5.88
2019-02-02T19:40:47.193Z,5.93
2019-02-02T19:43:34.614Z,5.98
2019-02-02T19:46:22.037Z,5.95
2019-02-02T19:49:09.465Z,5.96
2019-02-02T19:51:58.320Z,5.89
2019-02-02T19:54:45.536Z,5.85
2019-02-02T19:57:32.870Z,5.92
2019-02-02T20:00:28.499Z,5.95
2019-02-02T20:03:16.105Z,5.93
2019-02-02T20:06:03.531Z,5.93
2019-02-02T20:08:51.057Z,5.54
2019-02-02T20:11:38.589Z,5.48
2019-02-02T20:14:25.703Z,5.59
2019-02-02T20:17:14.797Z,5.74
2019-02-02T20:20:01.882Z,5.72
2019-02-02T20:22:49.802Z,5.85
2019-02-02T20:25:37.446Z,5.91
2019-02-02T20:28:25.278Z,5.92
2019-02-02T20:31:12.617Z,5.97
2019-02-02T20:34:00.050Z,5.98
2019-02-02T20:36:47.446Z,6.00
2019-02-02T20:39:35.278Z,6.02
2019-02-02T20:42:22.678Z,6.05
2019-02-02T20:45:13.096Z,6.07
2019-02-02T20:48:00.521Z,6.08
2019-02-02T20:50:48.456Z,6.08
2019-02-02T20:53:36.392Z,6.04
2019-02-02T20:56:24.224Z,6.05
2019-02-02T20:59:11.548Z,6.07
2019-02-02T21:01:59.077Z,6.09
2019-02-02T21:04:46.704Z,6.12
2019-02-02T21:07:34.332Z,6.14
2019-02-02T21:10:23.635Z,6.15
2019-02-02T21:13:10.820Z,6.16
2019-02-02T21:15:58.244Z,6.18
2019-02-02T21:18:45.472Z,6.19
2019-02-02T21:21:32.887Z,6.20
2019-02-02T21:24:20.515Z,6.17
2019-02-02T21:27:07.629Z,6.18
2019-02-02T21:29:55.055Z,6.20
2019-02-02T21:32:46.749Z,6.23
2019-02-02T21:35:34.621Z,6.20
2019-02-02T21:38:22.143Z,6.18
2019-02-02T21:41:09.473Z,6.21
2019-02-02T21:43:56.753Z,6.21
2019-02-02T21:46:44.322Z,6.18
2019-02-02T21:49:31.735Z,6.18
2019-02-02T21:52:19.463Z,6.19
2019-02-02T21:55:10.064Z,6.20
2019-02-02T21:57:57.692Z,6.19
2019-02-02T22:00:45.528Z,6.18
2019-02-02T22:03:32.646Z,6.16
2019-02-02T22:06:20.170Z,6.16
2019-02-02T22:09:08.635Z,6.15
2019-02-02T22:11:56.043Z,6.17
2019-02-02T22:14:43.685Z,6.15
2019-02-02T22:17:31.198Z,6.17
2019-02-02T22:20:19.029Z,6.11
2019-02-02T22:23:06.145Z,6.14
2019-02-02T22:25:53.366Z,6.13
2019-02-02T22:28:40.994Z,6.07
2019-02-02T22:31:28.628Z,6.06
2019-02-02T22:34:16.047Z,6.10
2019-02-02T22:37:03.598Z,6.13
2019-02-02T22:39:51.309Z,6.13
2019-02-02T22:42:38.936Z,6.14
2019-02-02T22:45:26.152Z,6.13
2019-02-02T22:48:13.475Z,6.13
2019-02-02T22:51:01.208Z,6.14
2019-02-02T22:53:48.425Z,6.11
2019-02-02T22:56:35.951Z,6.11
2019-02-02T22:59:23.276Z,6.10
2019-02-02T23:02:11.722Z,6.11
2019-02-02T23:05:02.741Z,6.09
2019-02-02T23:07:53.092Z,6.07
2019-02-02T23:10:46.490Z,6.11
2019-02-02T23:13:45.923Z,6.11
2019-02-02T23:16:33.213Z,6.08
2019-02-02T23:19:20.636Z,6.05
2019-02-02T23:22:08.160Z,6.02
2019-02-02T23:24:55.892Z,6.02
2019-02-02T23:27:43.317Z,6.04
2019-02-02T23:30:30.793Z,6.03
2019-02-02T23:33:18.285Z,5.82
2019-02-02T23:36:06.146Z,5.44
2019-02-02T23:38:53.532Z,5.52
2019-02-02T23:41:41.053Z,5.38
2019-02-02T23:44:28.884Z,5.19
2019-02-02T23:47:16.411Z,5.46
2019-02-02T23:50:05.069Z,5.21
2019-02-02T23:52:52.717Z,5.04
2019-02-02T23:55:40.537Z,5.14
2019-02-02T23:58:27.965Z,5.37
